AVA2203 SEQM-SPZO
Flight info
| Callsign | AVA2203 |
|---|---|
| Flight time | 2h 2m |
| Altitude | 39000 |
| Route | VURIS UP408 NILSA DCT DARKI |
| Aircraft | A20N/M-SDE2E3FGHIRWXY/LB1 |
Departure
| Time | 2026-05-06 16:02 |
|---|---|
| Airport | Mariscal Sucre International Airport (SEQM) |
Arrival
| Time | 2026-05-06 18:04 |
|---|---|
| Airport | Alejandro Velasco Astete International Airport (SPZO) |
| Time | Latitude | Longitude | Altitude | Speed | Heading |
|---|---|---|---|---|---|
| 2026-05-06 15:06 | -0.12431 | -78.35930 | 7840 ft | 0 kts | 267° |
| 2026-05-06 15:43 | -0.12430 | -78.35923 | 7832 ft | 2 kts | 267° |
| 2026-05-06 15:44 | -0.12430 | -78.35911 | 7839 ft | 2 kts | 267° |
| 2026-05-06 15:44 | -0.12429 | -78.35898 | 7836 ft | 2 kts | 267° |
| 2026-05-06 15:44 | -0.12428 | -78.35885 | 7834 ft | 2 kts | 267° |
| 2026-05-06 15:44 | -0.12428 | -78.35872 | 7835 ft | 2 kts | 267° |
| 2026-05-06 15:45 | -0.12428 | -78.35860 | 7835 ft | 2 kts | 282° |
| 2026-05-06 15:45 | -0.12432 | -78.35847 | 7833 ft | 2 kts | 306° |
| 2026-05-06 15:45 | -0.12441 | -78.35838 | 7831 ft | 2 kts | 338° |
| 2026-05-06 15:45 | -0.12449 | -78.35836 | 7834 ft | 0 kts | 349° |
| 2026-05-06 15:48 | -0.12447 | -78.35836 | 7833 ft | 1 kts | 349° |
| 2026-05-06 15:49 | -0.12428 | -78.35839 | 7835 ft | 4 kts | 354° |
| 2026-05-06 15:49 | -0.12393 | -78.35837 | 7837 ft | 6 kts | 14° |
| 2026-05-06 15:49 | -0.12367 | -78.35802 | 7835 ft | 7 kts | 76° |
| 2026-05-06 15:49 | -0.12363 | -78.35771 | 7838 ft | 1 kts | 86° |
| 2026-05-06 15:50 | -0.12362 | -78.35756 | 7834 ft | 4 kts | 86° |
| 2026-05-06 15:50 | -0.12360 | -78.35722 | 7834 ft | 6 kts | 86° |
| 2026-05-06 15:50 | -0.12356 | -78.35670 | 7841 ft | 9 kts | 86° |
| 2026-05-06 15:50 | -0.12331 | -78.35622 | 7840 ft | 8 kts | 32° |
| 2026-05-06 15:51 | -0.12279 | -78.35619 | 7841 ft | 8 kts | 357° |
| 2026-05-06 15:51 | -0.12211 | -78.35622 | 7836 ft | 9 kts | 358° |
| 2026-05-06 15:51 | -0.12188 | -78.35623 | 7832 ft | 3 kts | 358° |
| 2026-05-06 15:51 | -0.12147 | -78.35624 | 7835 ft | 9 kts | 358° |
| 2026-05-06 15:52 | -0.12063 | -78.35627 | 7833 ft | 15 kts | 358° |
| 2026-05-06 15:52 | -0.11943 | -78.35633 | 7829 ft | 20 kts | 357° |
| 2026-05-06 15:52 | -0.11792 | -78.35641 | 7825 ft | 23 kts | 357° |
| 2026-05-06 15:52 | -0.11622 | -78.35645 | 7820 ft | 26 kts | 360° |
| 2026-05-06 15:53 | -0.11427 | -78.35645 | 7814 ft | 29 kts | 360° |
| 2026-05-06 15:53 | -0.11218 | -78.35643 | 7808 ft | 30 kts | 1° |
| 2026-05-06 15:53 | -0.11016 | -78.35636 | 7800 ft | 27 kts | 351° |
| 2026-05-06 15:53 | -0.10930 | -78.35671 | 7796 ft | 7 kts | 339° |
| 2026-05-06 15:54 | -0.10864 | -78.35681 | 7793 ft | 13 kts | 359° |
| 2026-05-06 15:54 | -0.10756 | -78.35683 | 7788 ft | 18 kts | 356° |
| 2026-05-06 15:54 | -0.10619 | -78.35694 | 7782 ft | 18 kts | 359° |
| 2026-05-06 15:54 | -0.10582 | -78.35733 | 7781 ft | 8 kts | 277° |
| 2026-05-06 15:55 | -0.10543 | -78.35773 | 7777 ft | 10 kts | 354° |
| 2026-05-06 15:55 | -0.10519 | -78.35774 | 7779 ft | 0 kts | 359° |
| 2026-05-06 15:56 | -0.10517 | -78.35774 | 7779 ft | 2 kts | 359° |
| 2026-05-06 15:56 | -0.10489 | -78.35764 | 7778 ft | 7 kts | 40° |
| 2026-05-06 15:56 | -0.10480 | -78.35711 | 7777 ft | 9 kts | 110° |
| 2026-05-06 15:56 | -0.10535 | -78.35689 | 7771 ft | 9 kts | 173° |
| 2026-05-06 15:57 | -0.10576 | -78.35650 | 7773 ft | 9 kts | 96° |
| 2026-05-06 15:57 | -0.10575 | -78.35575 | 7780 ft | 13 kts | 90° |
| 2026-05-06 15:57 | -0.10601 | -78.35519 | 7777 ft | 3 kts | 161° |
| 2026-05-06 15:57 | -0.10612 | -78.35518 | 7782 ft | 0 kts | 179° |
| 2026-05-06 16:01 | -0.10732 | -78.35517 | 7786 ft | 48 kts | 179° |
| 2026-05-06 16:01 | -0.11283 | -78.35492 | 7814 ft | 109 kts | 177° |
| 2026-05-06 16:01 | -0.12222 | -78.35457 | 7835 ft | 158 kts | 178° |
| 2026-05-06 16:01 | -0.13417 | -78.35417 | 8100 ft | 179 kts | 179° |
| 2026-05-06 16:02 | -0.14721 | -78.35386 | 8562 ft | 193 kts | 178° |
| 2026-05-06 16:02 | -0.16101 | -78.35366 | 9112 ft | 201 kts | 178° |
| 2026-05-06 16:02 | -0.17510 | -78.35362 | 9557 ft | 206 kts | 177° |
| 2026-05-06 16:02 | -0.18946 | -78.35332 | 9985 ft | 216 kts | 175° |
| 2026-05-06 16:03 | -0.20538 | -78.35231 | 10253 ft | 239 kts | 174° |
| 2026-05-06 16:03 | -0.22285 | -78.35111 | 10506 ft | 262 kts | 174° |
| 2026-05-06 16:03 | -0.24164 | -78.34997 | 10799 ft | 283 kts | 175° |
| 2026-05-06 16:03 | -0.26223 | -78.34889 | 11128 ft | 306 kts | 175° |
| 2026-05-06 16:04 | -0.28417 | -78.34785 | 11387 ft | 329 kts | 175° |
| 2026-05-06 16:04 | -0.30780 | -78.34683 | 11814 ft | 345 kts | 175° |
| 2026-05-06 16:04 | -0.33154 | -78.34589 | 12572 ft | 346 kts | 175° |
| 2026-05-06 16:04 | -0.35591 | -78.34496 | 13489 ft | 348 kts | 174° |
| 2026-05-06 16:05 | -0.38029 | -78.34402 | 14226 ft | 353 kts | 174° |
| 2026-05-06 16:05 | -0.40503 | -78.34301 | 14908 ft | 357 kts | 174° |
| 2026-05-06 16:05 | -0.43004 | -78.34142 | 15560 ft | 358 kts | 167° |
| 2026-05-06 16:05 | -0.45439 | -78.33546 | 16153 ft | 362 kts | 161° |
| 2026-05-06 16:06 | -0.47873 | -78.32858 | 16741 ft | 368 kts | 161° |
| 2026-05-06 16:06 | -0.50370 | -78.32175 | 17216 ft | 379 kts | 162° |
| 2026-05-06 16:06 | -0.52963 | -78.31498 | 17377 ft | 396 kts | 163° |
| 2026-05-06 16:06 | -0.55713 | -78.30807 | 17554 ft | 412 kts | 163° |
| 2026-05-06 16:07 | -0.58505 | -78.30121 | 18038 ft | 417 kts | 164° |
| 2026-05-06 16:07 | -0.61349 | -78.29427 | 18627 ft | 421 kts | 164° |
| 2026-05-06 16:07 | -0.64197 | -78.28729 | 19101 ft | 425 kts | 164° |
| 2026-05-06 16:07 | -0.66121 | -78.28257 | 19434 ft | 427 kts | 164° |
| 2026-05-06 16:08 | -0.69043 | -78.27541 | 19925 ft | 430 kts | 164° |
| 2026-05-06 16:08 | -0.71963 | -78.26822 | 20355 ft | 434 kts | 164° |
| 2026-05-06 16:08 | -0.74878 | -78.26102 | 20799 ft | 437 kts | 164° |
| 2026-05-06 16:08 | -0.78818 | -78.25125 | 21386 ft | 441 kts | 164° |
| 2026-05-06 16:09 | -0.80813 | -78.24629 | 21677 ft | 443 kts | 164° |
| 2026-05-06 16:09 | -0.83834 | -78.23879 | 22080 ft | 447 kts | 164° |
| 2026-05-06 16:09 | -0.86868 | -78.23123 | 22511 ft | 451 kts | 164° |
| 2026-05-06 16:09 | -0.89910 | -78.22364 | 22896 ft | 454 kts | 164° |
| 2026-05-06 16:10 | -0.92973 | -78.21601 | 23281 ft | 457 kts | 165° |
| 2026-05-06 16:10 | -0.96082 | -78.20825 | 23672 ft | 459 kts | 165° |
| 2026-05-06 16:10 | -0.99194 | -78.20048 | 23977 ft | 463 kts | 165° |
| 2026-05-06 16:10 | -1.02328 | -78.19265 | 24323 ft | 465 kts | 165° |
| 2026-05-06 16:11 | -1.05466 | -78.18482 | 24679 ft | 467 kts | 165° |
| 2026-05-06 16:11 | -1.08642 | -78.17690 | 25037 ft | 469 kts | 165° |
| 2026-05-06 16:11 | -1.11833 | -78.16881 | 25347 ft | 470 kts | 163° |
| 2026-05-06 16:11 | -1.14931 | -78.15951 | 25644 ft | 472 kts | 162° |
| 2026-05-06 16:12 | -1.18101 | -78.14964 | 25948 ft | 474 kts | 161° |
| 2026-05-06 16:12 | -1.21233 | -78.13977 | 26242 ft | 476 kts | 161° |
| 2026-05-06 16:12 | -1.24411 | -78.12972 | 26526 ft | 478 kts | 161° |
| 2026-05-06 16:12 | -1.27564 | -78.11971 | 26851 ft | 480 kts | 161° |
| 2026-05-06 16:13 | -1.30772 | -78.10953 | 27134 ft | 482 kts | 161° |
| 2026-05-06 16:13 | -1.33991 | -78.09932 | 27378 ft | 485 kts | 161° |
| 2026-05-06 16:13 | -1.37214 | -78.08908 | 27660 ft | 486 kts | 161° |
| 2026-05-06 16:13 | -1.40413 | -78.07893 | 27923 ft | 488 kts | 161° |
| 2026-05-06 16:14 | -1.43665 | -78.06862 | 28157 ft | 490 kts | 161° |
| 2026-05-06 16:14 | -1.46913 | -78.05833 | 28380 ft | 491 kts | 161° |
| 2026-05-06 16:14 | -1.50179 | -78.04793 | 28517 ft | 493 kts | 160° |
| 2026-05-06 16:14 | -1.53425 | -78.03566 | 28691 ft | 492 kts | 155° |
| 2026-05-06 16:15 | -1.56549 | -78.02154 | 28851 ft | 492 kts | 154° |
| 2026-05-06 16:15 | -1.59653 | -78.00703 | 28970 ft | 493 kts | 153° |
| 2026-05-06 16:15 | -1.62759 | -77.99230 | 29086 ft | 494 kts | 153° |
| 2026-05-06 16:15 | -1.65842 | -77.97760 | 29185 ft | 495 kts | 153° |
| 2026-05-06 16:16 | -1.68966 | -77.96269 | 29303 ft | 495 kts | 153° |
| 2026-05-06 16:16 | -1.72054 | -77.94797 | 29458 ft | 494 kts | 153° |
| 2026-05-06 16:16 | -1.75152 | -77.93323 | 29597 ft | 495 kts | 153° |
| 2026-05-06 16:16 | -1.78291 | -77.91832 | 29784 ft | 494 kts | 153° |
| 2026-05-06 16:17 | -1.81365 | -77.90373 | 30027 ft | 494 kts | 153° |
| 2026-05-06 16:17 | -1.84468 | -77.88901 | 30372 ft | 490 kts | 152° |
| 2026-05-06 16:17 | -1.87514 | -77.87458 | 30659 ft | 488 kts | 152° |
| 2026-05-06 16:17 | -1.90602 | -77.85994 | 30811 ft | 489 kts | 152° |
| 2026-05-06 16:18 | -1.93675 | -77.84537 | 30948 ft | 491 kts | 152° |
| 2026-05-06 16:18 | -1.96769 | -77.83070 | 31105 ft | 491 kts | 152° |
| 2026-05-06 16:18 | -1.99864 | -77.81603 | 31298 ft | 491 kts | 153° |
| 2026-05-06 16:18 | -2.02943 | -77.80146 | 31522 ft | 491 kts | 152° |
| 2026-05-06 16:19 | -2.06008 | -77.78695 | 31753 ft | 490 kts | 153° |
| 2026-05-06 16:19 | -2.09087 | -77.77237 | 32009 ft | 489 kts | 153° |
| 2026-05-06 16:19 | -2.12176 | -77.75775 | 32256 ft | 489 kts | 153° |
| 2026-05-06 16:19 | -2.15240 | -77.74324 | 32472 ft | 489 kts | 153° |
| 2026-05-06 16:20 | -2.18317 | -77.72868 | 32665 ft | 489 kts | 153° |
| 2026-05-06 16:20 | -2.21369 | -77.71424 | 32855 ft | 488 kts | 153° |
| 2026-05-06 16:20 | -2.24457 | -77.69964 | 33040 ft | 488 kts | 153° |
| 2026-05-06 16:20 | -2.27506 | -77.68523 | 33208 ft | 488 kts | 153° |
| 2026-05-06 16:21 | -2.30600 | -77.67059 | 33405 ft | 488 kts | 153° |
| 2026-05-06 16:21 | -2.33658 | -77.65613 | 33565 ft | 488 kts | 153° |
| 2026-05-06 16:21 | -2.36751 | -77.64151 | 33724 ft | 487 kts | 153° |
| 2026-05-06 16:21 | -2.39803 | -77.62708 | 33895 ft | 487 kts | 153° |
| 2026-05-06 16:22 | -2.42836 | -77.61275 | 34068 ft | 487 kts | 153° |
| 2026-05-06 16:22 | -2.45880 | -77.59835 | 34215 ft | 487 kts | 153° |
| 2026-05-06 16:22 | -2.48980 | -77.58368 | 34356 ft | 486 kts | 153° |
| 2026-05-06 16:22 | -2.52031 | -77.56925 | 34482 ft | 486 kts | 153° |
| 2026-05-06 16:23 | -2.55105 | -77.55471 | 34642 ft | 486 kts | 153° |
| 2026-05-06 16:23 | -2.58124 | -77.54043 | 34778 ft | 485 kts | 153° |
| 2026-05-06 16:23 | -2.61174 | -77.52599 | 34914 ft | 485 kts | 153° |
| 2026-05-06 16:23 | -2.64251 | -77.51144 | 35068 ft | 485 kts | 153° |
| 2026-05-06 16:24 | -2.67289 | -77.49706 | 35207 ft | 484 kts | 153° |
| 2026-05-06 16:24 | -2.70313 | -77.48275 | 35334 ft | 484 kts | 153° |
| 2026-05-06 16:24 | -2.73373 | -77.46827 | 35481 ft | 484 kts | 153° |
| 2026-05-06 16:24 | -2.76395 | -77.45397 | 35624 ft | 484 kts | 153° |
| 2026-05-06 16:25 | -2.79420 | -77.43966 | 35768 ft | 483 kts | 153° |
| 2026-05-06 16:25 | -2.82479 | -77.42518 | 35922 ft | 483 kts | 154° |
| 2026-05-06 16:25 | -2.85526 | -77.41076 | 36090 ft | 483 kts | 154° |
| 2026-05-06 16:25 | -2.88543 | -77.39649 | 36242 ft | 482 kts | 154° |
| 2026-05-06 16:26 | -2.91584 | -77.38211 | 36393 ft | 482 kts | 154° |
| 2026-05-06 16:26 | -2.94601 | -77.36785 | 36552 ft | 482 kts | 154° |
| 2026-05-06 16:26 | -2.97671 | -77.35333 | 36716 ft | 481 kts | 154° |
| 2026-05-06 16:26 | -3.00682 | -77.33910 | 36883 ft | 480 kts | 154° |
| 2026-05-06 16:27 | -3.03683 | -77.32492 | 37048 ft | 480 kts | 154° |
| 2026-05-06 16:27 | -3.06719 | -77.31056 | 37197 ft | 479 kts | 154° |
| 2026-05-06 16:27 | -3.09712 | -77.29641 | 37334 ft | 479 kts | 155° |
| 2026-05-06 16:27 | -3.12745 | -77.28207 | 37464 ft | 479 kts | 155° |
| 2026-05-06 16:28 | -3.15740 | -77.26790 | 37598 ft | 479 kts | 155° |
| 2026-05-06 16:28 | -3.18734 | -77.25375 | 37722 ft | 479 kts | 155° |
| 2026-05-06 16:28 | -3.21770 | -77.23939 | 37867 ft | 479 kts | 155° |
| 2026-05-06 16:28 | -3.24800 | -77.22508 | 37991 ft | 478 kts | 155° |
| 2026-05-06 16:29 | -3.27787 | -77.21097 | 38111 ft | 478 kts | 155° |
| 2026-05-06 16:29 | -3.30827 | -77.19661 | 38239 ft | 478 kts | 155° |
| 2026-05-06 16:29 | -3.33808 | -77.18253 | 38348 ft | 478 kts | 155° |
| 2026-05-06 16:29 | -3.36828 | -77.16826 | 38475 ft | 477 kts | 155° |
| 2026-05-06 16:30 | -3.41818 | -77.14470 | 38655 ft | 477 kts | 156° |
| 2026-05-06 16:30 | -3.45819 | -77.12580 | 38795 ft | 477 kts | 156° |
| 2026-05-06 16:30 | -3.48829 | -77.11159 | 38885 ft | 477 kts | 156° |
| 2026-05-06 16:31 | -3.54782 | -77.08347 | 39047 ft | 476 kts | 156° |
| 2026-05-06 16:31 | -3.60785 | -77.05512 | 39063 ft | 476 kts | 156° |
| 2026-05-06 16:32 | -3.66789 | -77.02678 | 39067 ft | 476 kts | 155° |
| 2026-05-06 16:32 | -3.72748 | -76.99864 | 39062 ft | 475 kts | 156° |
| 2026-05-06 16:33 | -3.78673 | -76.97060 | 39057 ft | 471 kts | 156° |
| 2026-05-06 16:34 | -3.87594 | -76.92838 | 39067 ft | 474 kts | 156° |
| 2026-05-06 16:34 | -3.93584 | -76.90003 | 39063 ft | 475 kts | 156° |
| 2026-05-06 16:35 | -3.99561 | -76.87174 | 39053 ft | 476 kts | 156° |
| 2026-05-06 16:35 | -4.05543 | -76.84341 | 39047 ft | 477 kts | 156° |
| 2026-05-06 16:36 | -4.11604 | -76.81471 | 39063 ft | 478 kts | 156° |
| 2026-05-06 16:36 | -4.17611 | -76.78625 | 39062 ft | 478 kts | 156° |
| 2026-05-06 16:37 | -4.23600 | -76.75790 | 39045 ft | 478 kts | 156° |
| 2026-05-06 16:37 | -4.29635 | -76.72932 | 39051 ft | 478 kts | 156° |
| 2026-05-06 16:38 | -4.35659 | -76.70079 | 39054 ft | 478 kts | 156° |
| 2026-05-06 16:38 | -4.41662 | -76.67236 | 39057 ft | 478 kts | 156° |
| 2026-05-06 16:39 | -4.47687 | -76.64380 | 39044 ft | 478 kts | 156° |
| 2026-05-06 16:39 | -4.53735 | -76.61513 | 39043 ft | 478 kts | 156° |
| 2026-05-06 16:40 | -4.59714 | -76.58679 | 39055 ft | 478 kts | 156° |
| 2026-05-06 16:40 | -4.65709 | -76.55836 | 39048 ft | 478 kts | 156° |
| 2026-05-06 16:41 | -4.71731 | -76.52980 | 39041 ft | 477 kts | 156° |
| 2026-05-06 16:41 | -4.77723 | -76.50139 | 39041 ft | 477 kts | 156° |
| 2026-05-06 16:42 | -4.83728 | -76.47290 | 39057 ft | 477 kts | 156° |
| 2026-05-06 16:42 | -4.89712 | -76.44451 | 39048 ft | 476 kts | 156° |
| 2026-05-06 16:43 | -4.95714 | -76.41602 | 39040 ft | 476 kts | 156° |
| 2026-05-06 16:43 | -5.01702 | -76.38760 | 39049 ft | 476 kts | 156° |
| 2026-05-06 16:44 | -5.07700 | -76.35915 | 39052 ft | 476 kts | 156° |
| 2026-05-06 16:44 | -5.13656 | -76.33090 | 39050 ft | 476 kts | 156° |
| 2026-05-06 16:45 | -5.19681 | -76.30229 | 39048 ft | 476 kts | 156° |
| 2026-05-06 16:45 | -5.25651 | -76.27393 | 39041 ft | 477 kts | 156° |
| 2026-05-06 16:46 | -5.31639 | -76.24549 | 39046 ft | 478 kts | 155° |
| 2026-05-06 16:46 | -5.36589 | -76.22080 | 39045 ft | 478 kts | 152° |
| 2026-05-06 16:47 | -5.42436 | -76.18918 | 39046 ft | 478 kts | 152° |
| 2026-05-06 16:47 | -5.48284 | -76.15730 | 39046 ft | 479 kts | 152° |
| 2026-05-06 16:48 | -5.54145 | -76.12533 | 39042 ft | 480 kts | 152° |
| 2026-05-06 16:48 | -5.60067 | -76.09305 | 39042 ft | 481 kts | 151° |
| 2026-05-06 16:49 | -5.65951 | -76.06097 | 39048 ft | 481 kts | 151° |
| 2026-05-06 16:49 | -5.71838 | -76.02887 | 39037 ft | 482 kts | 151° |
| 2026-05-06 16:50 | -5.77729 | -75.99675 | 39042 ft | 482 kts | 151° |
| 2026-05-06 16:50 | -5.83593 | -75.96475 | 39046 ft | 482 kts | 151° |
| 2026-05-06 16:51 | -5.89487 | -75.93259 | 39044 ft | 483 kts | 151° |
| 2026-05-06 16:51 | -5.95383 | -75.90040 | 39043 ft | 483 kts | 151° |
| 2026-05-06 16:52 | -6.01284 | -75.86819 | 39046 ft | 484 kts | 151° |
| 2026-05-06 16:52 | -6.07227 | -75.83576 | 39041 ft | 484 kts | 151° |
| 2026-05-06 16:53 | -6.13133 | -75.80352 | 39048 ft | 485 kts | 151° |
| 2026-05-06 16:53 | -6.19070 | -75.77111 | 39045 ft | 485 kts | 151° |
| 2026-05-06 16:54 | -6.25010 | -75.73868 | 39048 ft | 485 kts | 151° |
| 2026-05-06 16:54 | -6.30929 | -75.70638 | 39049 ft | 485 kts | 151° |
| 2026-05-06 16:55 | -6.36868 | -75.67396 | 39049 ft | 486 kts | 151° |
| 2026-05-06 16:55 | -6.42813 | -75.64150 | 39053 ft | 486 kts | 151° |
| 2026-05-06 16:56 | -6.48740 | -75.60913 | 39055 ft | 486 kts | 151° |
| 2026-05-06 16:56 | -6.54714 | -75.57650 | 39056 ft | 487 kts | 150° |
| 2026-05-06 16:57 | -6.60650 | -75.54407 | 39062 ft | 487 kts | 150° |
| 2026-05-06 16:57 | -6.66608 | -75.51149 | 39057 ft | 488 kts | 150° |
| 2026-05-06 16:58 | -6.72581 | -75.47882 | 39061 ft | 489 kts | 150° |
| 2026-05-06 16:58 | -6.78565 | -75.44608 | 39059 ft | 490 kts | 150° |
| 2026-05-06 16:59 | -6.84560 | -75.41326 | 39058 ft | 491 kts | 150° |
| 2026-05-06 16:59 | -6.90514 | -75.38066 | 39055 ft | 491 kts | 150° |
| 2026-05-06 17:00 | -6.96507 | -75.34783 | 39058 ft | 492 kts | 150° |
| 2026-05-06 17:00 | -7.02500 | -75.31499 | 39055 ft | 491 kts | 151° |
| 2026-05-06 17:01 | -7.08498 | -75.28210 | 39058 ft | 491 kts | 151° |
| 2026-05-06 17:01 | -7.14491 | -75.24924 | 39056 ft | 490 kts | 151° |
| 2026-05-06 17:02 | -7.20487 | -75.21634 | 39057 ft | 491 kts | 151° |
| 2026-05-06 17:02 | -7.26464 | -75.18357 | 39058 ft | 490 kts | 151° |
| 2026-05-06 17:03 | -7.32450 | -75.15072 | 39053 ft | 490 kts | 151° |
| 2026-05-06 17:03 | -7.38449 | -75.11779 | 39032 ft | 490 kts | 151° |
| 2026-05-06 17:04 | -7.44409 | -75.08507 | 39032 ft | 490 kts | 151° |
| 2026-05-06 17:04 | -7.50391 | -75.05223 | 39035 ft | 490 kts | 151° |
| 2026-05-06 17:05 | -7.56387 | -75.01930 | 39034 ft | 490 kts | 151° |
| 2026-05-06 17:05 | -7.62387 | -74.98634 | 39027 ft | 490 kts | 151° |
| 2026-05-06 17:06 | -7.68357 | -74.95355 | 39027 ft | 490 kts | 151° |
| 2026-05-06 17:06 | -7.74331 | -74.92073 | 39032 ft | 490 kts | 151° |
| 2026-05-06 17:07 | -7.80321 | -74.88781 | 39029 ft | 490 kts | 151° |
| 2026-05-06 17:07 | -7.86284 | -74.85503 | 39023 ft | 489 kts | 151° |
| 2026-05-06 17:08 | -7.92291 | -74.82198 | 39023 ft | 489 kts | 151° |
| 2026-05-06 17:08 | -7.98301 | -74.78891 | 39019 ft | 489 kts | 151° |
| 2026-05-06 17:09 | -8.04241 | -74.75622 | 39019 ft | 489 kts | 151° |
| 2026-05-06 17:09 | -8.10248 | -74.72315 | 39026 ft | 489 kts | 151° |
| 2026-05-06 17:10 | -8.16216 | -74.69028 | 39030 ft | 490 kts | 151° |
| 2026-05-06 17:10 | -8.22173 | -74.65745 | 39042 ft | 490 kts | 151° |
| 2026-05-06 17:11 | -8.28162 | -74.62444 | 39048 ft | 489 kts | 151° |
| 2026-05-06 17:11 | -8.34165 | -74.59134 | 39046 ft | 490 kts | 151° |
| 2026-05-06 17:12 | -8.40139 | -74.55811 | 39046 ft | 490 kts | 149° |
| 2026-05-06 17:12 | -8.46010 | -74.52330 | 39048 ft | 490 kts | 149° |
| 2026-05-06 17:13 | -8.51847 | -74.48827 | 39037 ft | 490 kts | 149° |
| 2026-05-06 17:13 | -8.57680 | -74.45348 | 39032 ft | 490 kts | 149° |
| 2026-05-06 17:14 | -8.63568 | -74.41841 | 39016 ft | 490 kts | 149° |
| 2026-05-06 17:14 | -8.69461 | -74.38332 | 39006 ft | 491 kts | 149° |
| 2026-05-06 17:15 | -8.75334 | -74.34836 | 39007 ft | 491 kts | 149° |
| 2026-05-06 17:15 | -8.81223 | -74.31330 | 39004 ft | 491 kts | 149° |
| 2026-05-06 17:16 | -8.87127 | -74.27814 | 39005 ft | 492 kts | 149° |
| 2026-05-06 17:16 | -8.93004 | -74.24312 | 39007 ft | 492 kts | 148° |
| 2026-05-06 17:17 | -8.98897 | -74.20802 | 39002 ft | 492 kts | 148° |
| 2026-05-06 17:17 | -9.04799 | -74.17285 | 39003 ft | 492 kts | 148° |
| 2026-05-06 17:18 | -9.10709 | -74.13761 | 39003 ft | 492 kts | 148° |
| 2026-05-06 17:18 | -9.16603 | -74.10246 | 38996 ft | 492 kts | 148° |
| 2026-05-06 17:19 | -9.22520 | -74.06715 | 38996 ft | 493 kts | 148° |
| 2026-05-06 17:19 | -9.28432 | -74.03188 | 38992 ft | 493 kts | 148° |
| 2026-05-06 17:20 | -9.34326 | -73.99668 | 38995 ft | 493 kts | 148° |
| 2026-05-06 17:20 | -9.40260 | -73.96121 | 38999 ft | 494 kts | 148° |
| 2026-05-06 17:21 | -9.46151 | -73.92597 | 38992 ft | 494 kts | 148° |
| 2026-05-06 17:21 | -9.52088 | -73.89046 | 38995 ft | 494 kts | 148° |
| 2026-05-06 17:22 | -9.58025 | -73.85495 | 38993 ft | 495 kts | 148° |
| 2026-05-06 17:22 | -9.64045 | -73.82175 | 38994 ft | 495 kts | 155° |
| 2026-05-06 17:23 | -9.70551 | -73.79897 | 38992 ft | 495 kts | 167° |
| 2026-05-06 17:23 | -9.77236 | -73.78332 | 38992 ft | 494 kts | 167° |
| 2026-05-06 17:24 | -9.83925 | -73.76756 | 38993 ft | 493 kts | 167° |
| 2026-05-06 17:24 | -9.90608 | -73.75140 | 38996 ft | 493 kts | 167° |
| 2026-05-06 17:25 | -9.97290 | -73.73508 | 38994 ft | 492 kts | 167° |
| 2026-05-06 17:25 | -10.03923 | -73.71885 | 38996 ft | 492 kts | 167° |
| 2026-05-06 17:26 | -10.10576 | -73.70256 | 38996 ft | 491 kts | 167° |
| 2026-05-06 17:26 | -10.17177 | -73.68640 | 38998 ft | 491 kts | 167° |
| 2026-05-06 17:27 | -10.23827 | -73.67012 | 38993 ft | 491 kts | 167° |
| 2026-05-06 17:27 | -10.30472 | -73.65385 | 38996 ft | 490 kts | 167° |
| 2026-05-06 17:28 | -10.37105 | -73.63759 | 38994 ft | 490 kts | 167° |
| 2026-05-06 17:28 | -10.42619 | -73.62406 | 38992 ft | 490 kts | 167° |
| 2026-05-06 17:29 | -10.49250 | -73.60779 | 38986 ft | 489 kts | 167° |
| 2026-05-06 17:29 | -10.56943 | -73.58890 | 38988 ft | 489 kts | 167° |
| 2026-05-06 17:30 | -10.63569 | -73.57262 | 38987 ft | 489 kts | 167° |
| 2026-05-06 17:30 | -10.69065 | -73.55912 | 38983 ft | 489 kts | 167° |
| 2026-05-06 17:31 | -10.75676 | -73.54286 | 38984 ft | 489 kts | 167° |
| 2026-05-06 17:31 | -10.82288 | -73.52659 | 38984 ft | 488 kts | 167° |
| 2026-05-06 17:32 | -10.88903 | -73.51030 | 38975 ft | 488 kts | 167° |
| 2026-05-06 17:32 | -10.95510 | -73.49403 | 38978 ft | 488 kts | 167° |
| 2026-05-06 17:33 | -11.02066 | -73.47787 | 38973 ft | 487 kts | 167° |
| 2026-05-06 17:33 | -11.08652 | -73.46164 | 38977 ft | 487 kts | 167° |
| 2026-05-06 17:34 | -11.15239 | -73.44539 | 38978 ft | 486 kts | 167° |
| 2026-05-06 17:34 | -11.21817 | -73.42916 | 38984 ft | 486 kts | 167° |
| 2026-05-06 17:35 | -11.28403 | -73.41289 | 38990 ft | 486 kts | 167° |
| 2026-05-06 17:35 | -11.34946 | -73.39673 | 38994 ft | 486 kts | 167° |
| 2026-05-06 17:36 | -11.44808 | -73.37235 | 39002 ft | 485 kts | 167° |
| 2026-05-06 17:36 | -11.51375 | -73.35610 | 39005 ft | 485 kts | 167° |
| 2026-05-06 17:37 | -11.57892 | -73.33997 | 39006 ft | 485 kts | 167° |
| 2026-05-06 17:37 | -11.64455 | -73.32372 | 39013 ft | 485 kts | 167° |
| 2026-05-06 17:38 | -11.71018 | -73.30746 | 39015 ft | 484 kts | 167° |
| 2026-05-06 17:38 | -11.77578 | -73.29120 | 39022 ft | 484 kts | 167° |
| 2026-05-06 17:39 | -11.84122 | -73.27497 | 39022 ft | 484 kts | 167° |
| 2026-05-06 17:39 | -11.90617 | -73.25885 | 39021 ft | 483 kts | 167° |
| 2026-05-06 17:40 | -11.97208 | -73.24248 | 39029 ft | 484 kts | 167° |
| 2026-05-06 17:40 | -12.03725 | -73.22628 | 39031 ft | 484 kts | 167° |
| 2026-05-06 17:41 | -12.10273 | -73.21000 | 39038 ft | 484 kts | 167° |
| 2026-05-06 17:41 | -12.16807 | -73.19375 | 39035 ft | 483 kts | 167° |
| 2026-05-06 17:42 | -12.23329 | -73.17751 | 39040 ft | 483 kts | 167° |
| 2026-05-06 17:42 | -12.29881 | -73.16120 | 39038 ft | 483 kts | 167° |
| 2026-05-06 17:43 | -12.36419 | -73.14491 | 39036 ft | 483 kts | 167° |
| 2026-05-06 17:43 | -12.42946 | -73.12865 | 39036 ft | 484 kts | 167° |
| 2026-05-06 17:44 | -12.49477 | -73.11236 | 39040 ft | 483 kts | 167° |
| 2026-05-06 17:44 | -12.55997 | -73.09610 | 39042 ft | 483 kts | 167° |
| 2026-05-06 17:45 | -12.62493 | -73.07988 | 39051 ft | 482 kts | 167° |
| 2026-05-06 17:45 | -12.69051 | -73.06351 | 39060 ft | 482 kts | 167° |
| 2026-05-06 17:46 | -12.75518 | -73.04735 | 39069 ft | 482 kts | 167° |
| 2026-05-06 17:46 | -12.82048 | -73.03102 | 39085 ft | 481 kts | 167° |
| 2026-05-06 17:47 | -12.88552 | -73.01475 | 39100 ft | 475 kts | 167° |
| 2026-05-06 17:47 | -12.91695 | -73.00688 | 39009 ft | 463 kts | 167° |
| 2026-05-06 17:47 | -12.94801 | -72.99910 | 38287 ft | 464 kts | 167° |
| 2026-05-06 17:48 | -12.97990 | -72.99114 | 37145 ft | 473 kts | 167° |
| 2026-05-06 17:48 | -13.01194 | -72.98319 | 36177 ft | 480 kts | 167° |
| 2026-05-06 17:48 | -13.04455 | -72.97511 | 35557 ft | 477 kts | 167° |
| 2026-05-06 17:48 | -13.07630 | -72.96723 | 35210 ft | 469 kts | 166° |
| 2026-05-06 17:49 | -13.10792 | -72.95936 | 34982 ft | 472 kts | 166° |
| 2026-05-06 17:49 | -13.14035 | -72.95127 | 34744 ft | 480 kts | 166° |
| 2026-05-06 17:49 | -13.17291 | -72.94313 | 34178 ft | 487 kts | 166° |
| 2026-05-06 17:49 | -13.20592 | -72.93488 | 33367 ft | 491 kts | 166° |
| 2026-05-06 17:50 | -13.23894 | -72.92662 | 32474 ft | 494 kts | 166° |
| 2026-05-06 17:50 | -13.27261 | -72.91820 | 31615 ft | 494 kts | 166° |
| 2026-05-06 17:50 | -13.30587 | -72.90985 | 30729 ft | 496 kts | 166° |
| 2026-05-06 17:50 | -13.33776 | -72.90185 | 30397 ft | 485 kts | 166° |
| 2026-05-06 17:51 | -13.37011 | -72.89373 | 30237 ft | 469 kts | 165° |
| 2026-05-06 17:51 | -13.40067 | -72.88362 | 30066 ft | 453 kts | 155° |
| 2026-05-06 17:51 | -13.42692 | -72.86830 | 29921 ft | 436 kts | 141° |
| 2026-05-06 17:51 | -13.44903 | -72.84695 | 29675 ft | 421 kts | 127° |
| 2026-05-06 17:52 | -13.46434 | -72.82205 | 29175 ft | 413 kts | 111° |
| 2026-05-06 17:52 | -13.47268 | -72.79379 | 28611 ft | 406 kts | 96° |
| 2026-05-06 17:52 | -13.47321 | -72.76538 | 28084 ft | 399 kts | 82° |
| 2026-05-06 17:52 | -13.46972 | -72.73721 | 27561 ft | 397 kts | 81° |
| 2026-05-06 17:53 | -13.46709 | -72.70891 | 27056 ft | 395 kts | 85° |
| 2026-05-06 17:53 | -13.46656 | -72.68098 | 26589 ft | 393 kts | 90° |
| 2026-05-06 17:53 | -13.46758 | -72.65292 | 26105 ft | 390 kts | 92° |
| 2026-05-06 17:53 | -13.46949 | -72.62535 | 25623 ft | 388 kts | 94° |
| 2026-05-06 17:54 | -13.47167 | -72.59811 | 25159 ft | 386 kts | 94° |
| 2026-05-06 17:54 | -13.47404 | -72.57014 | 24655 ft | 384 kts | 95° |
| 2026-05-06 17:54 | -13.47644 | -72.54292 | 24196 ft | 379 kts | 95° |
| 2026-05-06 17:54 | -13.47874 | -72.51636 | 23512 ft | 376 kts | 95° |
| 2026-05-06 17:55 | -13.48096 | -72.48982 | 22923 ft | 368 kts | 95° |
| 2026-05-06 17:55 | -13.48309 | -72.46404 | 22493 ft | 356 kts | 95° |
| 2026-05-06 17:55 | -13.48508 | -72.43942 | 22070 ft | 346 kts | 95° |
| 2026-05-06 17:55 | -13.48701 | -72.41476 | 21653 ft | 336 kts | 95° |
| 2026-05-06 17:56 | -13.48889 | -72.39138 | 21256 ft | 326 kts | 95° |
| 2026-05-06 17:56 | -13.49083 | -72.36796 | 20870 ft | 338 kts | 96° |
| 2026-05-06 17:56 | -13.49335 | -72.34289 | 20444 ft | 359 kts | 99° |
| 2026-05-06 17:56 | -13.49740 | -72.31773 | 20085 ft | 360 kts | 100° |
| 2026-05-06 17:57 | -13.50163 | -72.29263 | 19988 ft | 344 kts | 100° |
| 2026-05-06 17:57 | -13.50566 | -72.26923 | 19900 ft | 326 kts | 100° |
| 2026-05-06 17:57 | -13.50950 | -72.24700 | 19813 ft | 308 kts | 100° |
| 2026-05-06 17:57 | -13.51329 | -72.22525 | 19693 ft | 308 kts | 100° |
| 2026-05-06 17:58 | -13.51711 | -72.20336 | 19301 ft | 311 kts | 100° |
| 2026-05-06 17:58 | -13.52097 | -72.18113 | 18591 ft | 319 kts | 100° |
| 2026-05-06 17:58 | -13.52487 | -72.15845 | 17873 ft | 330 kts | 100° |
| 2026-05-06 17:58 | -13.52886 | -72.13510 | 17435 ft | 330 kts | 100° |
| 2026-05-06 17:59 | -13.53282 | -72.11170 | 17063 ft | 327 kts | 100° |
| 2026-05-06 17:59 | -13.53667 | -72.08890 | 16680 ft | 326 kts | 100° |
| 2026-05-06 17:59 | -13.54052 | -72.06587 | 16297 ft | 324 kts | 100° |
| 2026-05-06 17:59 | -13.54428 | -72.04330 | 15927 ft | 322 kts | 100° |
| 2026-05-06 18:00 | -13.54799 | -72.02080 | 15543 ft | 321 kts | 100° |
| 2026-05-06 18:00 | -13.55171 | -71.99808 | 15130 ft | 320 kts | 100° |
| 2026-05-06 18:00 | -13.55536 | -71.97554 | 14733 ft | 318 kts | 100° |
| 2026-05-06 18:00 | -13.55937 | -71.95307 | 14249 ft | 320 kts | 101° |
| 2026-05-06 18:01 | -13.56349 | -71.93044 | 13658 ft | 319 kts | 103° |
| 2026-05-06 18:01 | -13.56931 | -71.90905 | 13185 ft | 306 kts | 108° |
| 2026-05-06 18:01 | -13.57479 | -71.88835 | 12950 ft | 287 kts | 99° |
| 2026-05-06 18:01 | -13.57638 | -71.86854 | 12804 ft | 268 kts | 93° |
| 2026-05-06 18:02 | -13.57480 | -71.85107 | 12860 ft | 228 kts | 66° |
| 2026-05-06 18:02 | -13.56412 | -71.84170 | 12697 ft | 203 kts | 4° |
| 2026-05-06 18:02 | -13.55371 | -71.84953 | 11689 ft | 204 kts | 289° |
| 2026-05-06 18:02 | -13.54889 | -71.86301 | 12102 ft | 198 kts | 293° |
| 2026-05-06 18:03 | -13.54393 | -71.87695 | 11791 ft | 219 kts | 288° |
| 2026-05-06 18:03 | -13.54037 | -71.89196 | 11401 ft | 210 kts | 278° |
| 2026-05-06 18:03 | -13.53915 | -71.90593 | 11164 ft | 180 kts | 276° |
| 2026-05-06 18:03 | -13.53782 | -71.91813 | 10903 ft | 168 kts | 275° |
| 2026-05-06 18:04 | -13.53662 | -71.93003 | 10804 ft | 166 kts | 276° |
| 2026-05-06 18:04 | -13.53559 | -71.94008 | 10794 ft | 115 kts | 275° |
| 2026-05-06 18:04 | -13.53499 | -71.94629 | 10806 ft | 60 kts | 275° |
| 2026-05-06 18:04 | -13.53500 | -71.94892 | 10804 ft | 29 kts | 245° |
| 2026-05-06 18:05 | -13.53546 | -71.94936 | 10806 ft | 2 kts | 195° |
| 2026-05-06 18:05 | -13.53574 | -71.94941 | 10804 ft | 0 kts | 183° |
| 2026-05-06 18:05 | -13.53589 | -71.94938 | 10805 ft | 4 kts | 161° |
| 2026-05-06 18:06 | -13.53610 | -71.94909 | 10804 ft | 7 kts | 115° |
| 2026-05-06 18:06 | -13.53611 | -71.94848 | 10804 ft | 11 kts | 98° |
| 2026-05-06 18:06 | -13.53624 | -71.94756 | 10805 ft | 15 kts | 95° |
| 2026-05-06 18:06 | -13.53635 | -71.94629 | 10803 ft | 21 kts | 95° |
| 2026-05-06 18:07 | -13.53652 | -71.94460 | 10800 ft | 26 kts | 97° |
| 2026-05-06 18:07 | -13.53662 | -71.94325 | 10797 ft | 7 kts | 94° |
| 2026-05-06 18:07 | -13.53672 | -71.94266 | 10796 ft | 5 kts | 143° |
| 2026-05-06 18:07 | -13.53714 | -71.94262 | 10799 ft | 2 kts | 231° |
| 2026-05-06 18:08 | -13.53717 | -71.94279 | 10800 ft | 4 kts | 257° |
| 2026-05-06 18:08 | -13.53724 | -71.94314 | 10797 ft | 5 kts | 257° |
| 2026-05-06 18:08 | -13.53727 | -71.94326 | 10798 ft | 0 kts | 257° |